Time;durP1;ratioP1;P1;durP2;ratioP2;P2;SDS_P1;SDS_P2;PMS_P1;PMS_P2;Temp;Humidity;BMP_temperature;BMP_pressure;BME280_temperature;BME280_humidity;BME280_pressure;Samples;Min_cycle;Max_cycle;Signal;HPM_P1;HPM_P2
2022/12/14 00:01:37;;;;;;;0.20;0.20;;;-2.90;99.90;;;-3.26;99.37;98959.28;4872697;29;20232;-77
2022/12/14 00:04:04;;;;;;;0.20;0.20;;;-2.90;99.90;;;-3.27;99.27;98954.91;4868059;29;20236;-78
2022/12/14 00:06:32;;;;;;;0.20;0.20;;;-2.90;99.90;;;-3.25;98.82;98948.09;4877518;29;20236;-78
2022/12/14 00:09:03;;;;;;;0.30;0.30;;;-2.90;99.90;;;-3.23;99.65;98953.34;4869974;29;20260;-81
2022/12/14 00:11:33;;;;;;;0.20;0.20;;;-2.90;99.90;;;-3.22;100.00;98956.00;4872353;29;20251;-80
2022/12/14 00:14:04;;;;;;;0.20;0.20;;;-2.90;99.90;;;-3.22;99.46;98943.06;4875755;29;20237;-80
2022/12/14 00:16:34;;;;;;;0.55;0.55;;;-2.90;99.90;;;-3.21;100.00;98954.28;4877736;29;20244;-79
2022/12/14 00:19:04;;;;;;;0.20;0.20;;;-2.50;99.90;;;-3.23;99.79;98943.00;4854794;29;20248;-79
2022/12/14 00:21:31;;;;;;;0.30;0.30;;;-2.90;99.90;;;-3.18;99.57;98936.31;4884306;29;20256;-79
2022/12/14 00:23:59;;;;;;;0.30;0.30;;;-2.90;99.90;;;-3.15;99.62;98931.25;4880678;29;20732;-79
2022/12/14 00:26:35;;;;;;;0.28;0.28;;;-2.80;99.90;;;-3.16;98.93;98913.09;4870680;29;20235;-80
2022/12/14 00:29:06;;;;;;;0.20;0.20;;;-2.90;99.90;;;-3.18;98.93;98902.69;4872421;29;20232;-81
2022/12/14 00:31:35;;;;;;;0.28;0.28;;;-2.90;99.90;;;-3.15;98.53;98901.94;4867203;29;20236;-81
2022/12/14 00:34:02;;;;;;;0.30;0.30;;;-1.80;99.90;;;-3.17;98.61;98893.25;4857807;29;20235;-79
2022/12/14 00:36:30;;;;;;;0.20;0.20;;;-2.30;99.90;;;-3.15;99.04;98900.22;4874094;29;20247;-80
2022/12/14 00:39:01;;;;;;;0.30;0.30;;;-2.90;99.90;;;-3.15;99.25;98895.06;4877447;29;20233;-81
2022/12/14 00:41:29;;;;;;;0.20;0.20;;;-2.90;99.90;;;-3.16;99.21;98903.63;4877025;29;20281;-81
2022/12/14 00:43:57;;;;;;;0.20;0.20;;;-2.80;99.90;;;-3.17;99.01;98912.22;4860952;29;20240;-79
2022/12/14 00:46:25;;;;;;;0.20;0.20;;;-2.50;99.90;;;-3.15;99.02;98905.41;4863060;29;20240;-80
2022/12/14 00:48:57;;;;;;;0.20;0.20;;;-2.80;99.90;;;-3.11;98.83;98890.88;4877601;29;20279;-79
2022/12/14 00:51:28;;;;;;;0.20;0.20;;;-3.40;99.90;;;-3.08;99.10;98891.88;4878740;29;20273;-80
2022/12/14 00:53:56;;;;;;;0.30;0.30;;;-2.80;99.90;;;-3.09;99.43;98895.28;4876582;29;20228;-80
2022/12/14 00:56:27;;;;;;;0.20;0.20;;;-2.80;99.90;;;-3.10;99.33;98887.47;4875024;29;20236;-81
2022/12/14 00:58:55;;;;;;;0.35;0.35;;;-2.80;99.90;;;-3.12;98.98;98882.25;4871177;29;20236;-81
2022/12/14 01:01:26;;;;;;;0.30;0.30;;;-2.80;99.90;;;-3.11;98.56;98881.44;4858899;29;20245;-80
2022/12/14 01:04:20;;;;;;;3.65;1.13;;;-2.80;99.90;;;-3.12;98.46;98882.25;4874529;29;20235;-80
2022/12/14 01:06:52;;;;;;;0.20;0.20;;;-2.70;99.90;;;-3.07;98.35;98860.03;4852356;29;20251;-81
2022/12/14 01:09:24;;;;;;;0.30;0.30;;;-2.80;99.90;;;-3.06;98.70;98868.66;4870767;29;20239;-81
2022/12/14 01:12:03;;;;;;;0.30;0.30;;;-2.70;99.90;;;-3.06;98.68;98877.31;4874476;29;20280;-79
2022/12/14 01:14:33;;;;;;;0.20;0.20;;;-2.80;99.90;;;-3.03;98.79;98868.78;4860177;29;20228;-79
2022/12/14 01:17:02;;;;;;;0.73;0.73;;;-2.70;99.90;;;-3.00;98.75;98887.88;4872886;29;20237;-79
2022/12/14 01:19:33;;;;;;;0.20;0.20;;;-2.70;99.90;;;-2.97;98.50;98874.19;4868844;29;20308;-79
2022/12/14 01:22:04;;;;;;;0.20;0.20;;;-2.60;99.90;;;-2.97;97.58;98854.38;4880656;29;20243;-79
2022/12/14 01:24:32;;;;;;;0.30;0.30;;;-2.60;99.90;;;-2.94;97.97;98849.31;4885618;29;20239;-79
2022/12/14 01:27:03;;;;;;;0.68;0.68;;;-2.60;99.90;;;-2.92;98.18;98862.31;4868141;29;20255;-79
2022/12/14 01:29:31;;;;;;;0.73;0.73;;;-2.60;99.90;;;-2.91;98.15;98862.34;4876050;29;20300;-78
2022/12/14 01:32:00;;;;;;;0.30;0.30;;;-2.60;99.90;;;-2.88;98.06;98868.47;4876514;29;20247;-79
2022/12/14 01:34:31;;;;;;;0.20;0.20;;;-2.60;99.90;;;-2.94;98.03;98870.00;4880598;29;20240;-78
2022/12/14 01:37:06;;;;;;;0.28;0.28;;;-2.60;99.90;;;-2.89;98.24;98857.25;4876292;29;20238;-79
2022/12/14 01:39:34;;;;;;;0.20;0.20;;;-2.60;99.90;;;-2.87;97.50;98858.19;4882313;29;20244;-79
2022/12/14 01:42:13;;;;;;;0.30;0.30;;;-2.60;99.90;;;-2.83;97.75;98860.06;4879446;29;20240;-79
2022/12/14 01:44:44;;;;;;;0.40;0.40;;;-2.50;99.90;;;-2.86;97.81;98841.84;4861591;29;20308;-79
2022/12/14 01:47:42;;;;;;;0.20;0.20;;;-2.50;99.90;;;-2.83;97.55;98849.72;4868922;29;20244;-79
2022/12/14 01:50:37;;;;;;;0.65;0.65;;;-2.50;99.90;;;-2.87;97.73;98846.94;4869650;29;20324;-80
2022/12/14 01:53:19;;;;;;;0.20;0.20;;;-2.60;99.90;;;-2.91;97.82;98841.66;4858540;29;20245;-81
2022/12/14 01:55:54;;;;;;;0.75;0.75;;;-2.60;99.90;;;-2.87;98.21;98855.59;4840431;29;20228;-80
2022/12/14 01:58:24;;;;;;;0.20;0.20;;;-2.60;99.90;;;-2.84;98.32;98862.59;4856017;29;20291;-80
2022/12/14 02:00:56;;;;;;;0.20;0.20;;;-2.50;99.90;;;-2.85;98.74;98859.13;4870829;29;20319;-80
2022/12/14 02:03:36;;;;;;;0.40;0.40;;;-2.50;99.90;;;-2.85;99.06;98864.28;4875029;29;20236;-80
2022/12/14 02:06:14;;;;;;;0.20;0.20;;;-2.50;99.90;;;-2.87;99.19;98852.13;4862117;29;20236;-80
2022/12/14 02:08:45;;;;;;;0.20;0.20;;;-2.60;99.90;;;-2.85;99.46;98859.13;4857701;29;20304;-80
2022/12/14 02:11:21;;;;;;;0.20;0.20;;;-2.50;99.90;;;-2.85;99.52;98850.47;4855526;29;20228;-80
2022/12/14 02:13:49;;;;;;;0.25;0.25;;;-2.50;99.90;;;-2.86;99.61;98870.28;4877290;29;20266;-78
2022/12/14 02:16:16;;;;;;;0.20;0.20;;;-2.50;99.90;;;-2.92;99.32;98858.00;4874335;29;20242;-79
2022/12/14 02:18:44;;;;;;;1.48;1.48;;;-2.70;99.90;;;-2.86;99.36;98864.22;4862331;29;20300;-79
2022/12/14 02:21:38;;;;;;;0.20;0.20;;;-2.60;99.90;;;-2.83;99.39;98854.88;4853105;29;20242;-79
2022/12/14 02:24:39;;;;;;;0.20;0.20;;;-2.50;99.90;;;-2.83;99.12;98851.41;4872045;29;20744;-80
2022/12/14 02:27:30;;;;;;;0.20;0.20;;;-2.50;99.90;;;-2.75;99.29;98860.31;4877990;29;20247;-79
2022/12/14 02:30:07;;;;;;;0.30;0.30;;;-2.50;99.90;;;-2.74;99.30;98856.91;4867444;29;20681;-80
2022/12/14 02:32:59;;;;;;;0.20;0.20;;;-2.40;99.90;;;-2.72;99.79;98858.72;4868382;29;20243;-79
2022/12/14 02:35:51;;;;;;;0.57;0.57;;;-2.40;99.90;;;-2.67;99.93;98862.38;4867861;29;20232;-79
2022/12/14 02:38:57;;;;;;;0.40;0.40;;;-2.40;99.90;;;-2.68;99.06;98845.09;4852926;29;20244;-79
2022/12/14 02:41:40;;;;;;;0.20;0.20;;;-2.40;99.90;;;-2.63;99.22;98848.72;4866029;29;20259;-79
2022/12/14 02:44:43;;;;;;;0.20;0.20;;;-2.30;99.90;;;-2.63;98.72;98834.91;4855029;29;20236;-79
2022/12/14 02:47:22;;;;;;;0.20;0.20;;;-2.30;99.90;;;-2.64;98.33;98821.06;4864691;29;20286;-79
2022/12/14 02:50:19;;;;;;;0.20;0.20;;;-2.30;99.90;;;-2.64;98.24;98807.25;4878405;29;20236;-79
2022/12/14 02:53:07;;;;;;;0.30;0.30;;;-2.30;99.90;;;-2.53;99.00;98826.66;4870558;29;20232;-80
2022/12/14 02:55:45;;;;;;;0.20;0.20;;;-2.30;99.90;;;-2.61;99.05;98818.59;4872647;29;20263;-79
2022/12/14 02:58:26;;;;;;;0.43;0.43;;;-2.30;99.90;;;-2.64;98.55;98813.31;4860421;29;20272;-80
2022/12/14 03:00:55;;;;;;;0.20;0.20;;;-2.30;99.90;;;-2.60;98.65;98816.91;4855263;29;20224;-79
2022/12/14 03:03:22;;;;;;;0.20;0.20;;;-2.20;99.90;;;-2.57;99.35;98822.19;4866810;29;20316;-79
2022/12/14 03:06:02;;;;;;;0.30;0.30;;;-2.30;99.90;;;-2.61;98.19;98797.91;4878013;29;20232;-79
2022/12/14 03:08:33;;;;;;;0.65;0.65;;;-2.30;99.90;;;-2.58;98.24;98797.16;4878381;29;20323;-80
2022/12/14 03:11:05;;;;;;;0.20;0.20;;;-1.40;99.90;;;-2.50;99.45;98824.19;4872078;29;20270;-79
2022/12/14 03:13:55;;;;;;;0.20;0.20;;;-2.20;99.90;;;-2.50;98.80;98820.72;4857842;29;20300;-80
2022/12/14 03:16:30;;;;;;;0.20;0.20;;;-2.20;99.90;;;-2.49;98.15;98813.00;4861330;29;20272;-80
2022/12/14 03:19:15;;;;;;;0.20;0.20;;;-2.20;99.90;;;-2.49;97.63;98797.47;4877239;29;20315;-79
2022/12/14 03:21:54;;;;;;;0.30;0.30;;;-2.20;99.90;;;-2.44;97.39;98782.09;4862601;29;20297;-78
2022/12/14 03:24:36;;;;;;;0.20;0.20;;;-2.20;99.90;;;-2.45;97.38;98786.38;4860452;29;20236;-79
2022/12/14 03:27:28;;;;;;;0.30;0.30;;;-2.10;99.90;;;-2.42;97.06;98770.97;4853371;29;20239;-79
2022/12/14 03:30:03;;;;;;;0.20;0.20;;;-2.10;99.90;;;-2.43;97.16;98760.56;4870512;29;20242;-78
2022/12/14 03:32:34;;;;;;;0.28;0.28;;;-2.50;99.90;;;-2.43;97.57;98765.75;4861397;29;20236;-79
2022/12/14 03:35:10;;;;;;;0.20;0.20;;;-2.20;99.90;;;-2.44;97.71;98774.31;4858151;29;20606;-78
2022/12/14 03:37:49;;;;;;;0.20;0.20;;;-2.10;99.90;;;-2.41;98.15;98785.66;4858901;29;20238;-78
2022/12/14 03:40:48;;;;;;;0.20;0.20;;;-2.10;99.90;;;-2.39;98.09;98781.41;4861770;29;20311;-79
2022/12/14 03:43:36;;;;;;;0.20;0.20;;;-2.10;99.90;;;-2.39;97.79;98765.88;4861846;29;20386;-79
2022/12/14 03:46:30;;;;;;;0.20;0.20;;;-2.20;99.90;;;-2.39;97.53;98773.66;4873544;29;20276;-80
2022/12/14 03:49:15;;;;;;;0.20;0.20;;;-2.20;99.90;;;-2.40;97.48;98758.94;4852750;29;20225;-80
2022/12/14 03:52:26;;;;;;;0.20;0.20;;;-2.10;99.90;;;-2.35;96.27;98753.94;4871938;29;20228;-80
2022/12/14 03:55:08;;;;;;;0.32;0.32;;;-2.20;99.90;;;-2.34;96.20;98741.03;4869001;29;20284;-80
2022/12/14 03:58:32;;;;;;;0.20;0.20;;;-2.00;99.90;;;-2.35;96.32;98731.50;4860011;29;20239;-80
2022/12/14 04:01:20;;;;;;;0.20;0.20;;;-2.10;99.90;;;-2.35;96.77;98730.63;4872676;29;20324;-80
2022/12/14 04:04:03;;;;;;;0.20;0.20;;;-2.00;99.90;;;-2.38;96.98;98738.28;4877971;29;20239;-80
2022/12/14 04:07:03;;;;;;;0.30;0.30;;;-2.10;99.90;;;-2.40;97.64;98724.44;4859437;29;20304;-80
2022/12/14 04:09:51;;;;;;;0.20;0.20;;;-2.10;99.90;;;-2.42;98.77;98728.66;4885205;29;20246;-80
2022/12/14 04:21:54;;;;;;;0.30;0.30;;;-2.10;99.90;;;-2.51;100.00;98769.78;4863618;29;20252;-79
2022/12/14 04:27:33;;;;;;;0.20;0.20;;;-2.20;99.90;;;-2.50;100.00;98793.13;4872785;29;20241;-80
2022/12/14 04:30:03;;;;;;;0.40;0.40;;;-2.20;99.90;;;-2.50;100.00;98787.94;4860502;29;20307;-79
2022/12/14 04:32:47;;;;;;;0.30;0.30;;;-1.70;99.90;;;-2.53;100.00;98789.53;4859362;29;20717;-79
2022/12/14 04:35:15;;;;;;;0.30;0.30;;;-2.20;99.90;;;-2.55;100.00;98789.50;4866231;29;20235;-79
2022/12/14 04:37:54;;;;;;;0.20;0.20;;;-2.20;99.90;;;-2.58;100.00;98792.84;4859566;29;20308;-79
2022/12/14 04:40:46;;;;;;;0.20;0.20;;;-2.40;99.90;;;-2.53;100.00;98794.72;4870233;29;20236;-79
2022/12/14 04:43:19;;;;;;;0.20;0.20;;;-2.20;99.90;;;-2.48;100.00;98795.75;4856380;29;20290;-79
2022/12/14 04:45:53;;;;;;;0.20;0.20;;;-2.10;99.90;;;-2.49;100.00;98794.88;4862033;29;20260;-79
2022/12/14 04:48:38;;;;;;;0.68;0.68;;;-2.20;99.90;;;-2.52;100.00;98791.31;4879104;29;20723;-79
2022/12/14 04:51:13;;;;;;;0.38;0.38;;;-2.20;99.90;;;-2.49;100.00;98791.41;4865042;29;20268;-80
2022/12/14 04:53:43;;;;;;;0.20;0.20;;;-2.20;99.90;;;-2.47;100.00;98793.22;4874636;29;20227;-79
2022/12/14 04:56:33;;;;;;;0.20;0.20;;;-2.10;99.90;;;-2.45;100.00;98801.91;4876297;29;20264;-79
2022/12/14 04:59:00;;;;;;;0.20;0.20;;;-2.20;99.90;;;-2.45;100.00;98788.09;4873448;29;20259;-79
2022/12/14 05:02:02;;;;;;;0.20;0.20;;;-1.70;99.90;;;-2.45;100.00;98773.44;4855151;29;20256;-79
2022/12/14 05:04:54;;;;;;;0.30;0.30;;;-2.10;99.90;;;-2.42;100.00;98786.50;4849058;29;20300;-79
2022/12/14 05:07:38;;;;;;;0.52;0.52;;;-2.10;99.90;;;-2.44;100.00;98780.38;4873016;29;20304;-79
2022/12/14 05:10:15;;;;;;;0.20;0.20;;;-2.10;99.90;;;-2.43;100.00;98782.16;4871362;29;20252;-79
2022/12/14 05:13:25;;;;;;;0.20;0.20;;;-2.10;99.90;;;-2.43;100.00;98778.69;4871679;29;20266;-78
2022/12/14 05:15:56;;;;;;;0.30;0.30;;;-2.10;99.90;;;-2.41;100.00;98779.59;4860577;29;20320;-79
2022/12/14 05:18:33;;;;;;;0.20;0.20;;;-2.10;99.90;;;-2.38;100.00;98785.78;4874914;29;20244;-79
2022/12/14 05:21:00;;;;;;;0.20;0.20;;;-2.10;99.90;;;-2.38;100.00;98769.34;4876968;29;20240;-79
2022/12/14 05:23:28;;;;;;;0.10;0.10;;;-2.10;99.90;;;-2.39;100.00;98755.53;4874782;29;20247;-79
2022/12/14 05:25:56;;;;;;;0.73;0.73;;;-2.10;99.90;;;-2.36;100.00;98755.63;4874097;29;20229;-79
2022/12/14 05:28:23;;;;;;;0.20;0.20;;;-1.80;99.90;;;-2.33;100.00;98757.44;4878128;29;20701;-79
2022/12/14 05:30:50;;;;;;;0.20;0.20;;;-2.10;99.90;;;-2.30;100.00;98766.19;4861938;29;20260;-79
2022/12/14 05:33:19;;;;;;;0.20;0.20;;;-2.00;99.90;;;-2.31;100.00;98758.38;4854265;29;20264;-79
2022/12/14 05:35:47;;;;;;;0.20;0.20;;;-2.00;99.90;;;-2.29;100.00;98736.00;4869689;29;20315;-78
2022/12/14 05:38:14;;;;;;;0.20;0.20;;;-1.40;99.90;;;-2.26;100.00;98736.09;4874349;29;20297;-79
2022/12/14 05:40:41;;;;;;;0.22;0.22;;;-1.90;99.90;;;-2.28;100.00;98749.00;4866056;29;20717;-78
2022/12/14 05:43:11;;;;;;;0.20;0.20;;;-2.00;99.90;;;-2.29;100.00;98734.28;4873692;29;20240;-78
2022/12/14 05:45:38;;;;;;;0.20;0.20;;;-2.00;99.90;;;-2.25;100.00;98714.56;4877026;29;20240;-80
2022/12/14 05:48:05;;;;;;;0.30;0.30;;;-2.00;99.90;;;-2.27;100.00;98711.94;4872360;29;20296;-79
2022/12/14 05:50:32;;;;;;;0.35;0.35;;;-2.00;99.90;;;-2.24;100.00;98723.22;4870404;29;20255;-79
2022/12/14 05:53:00;;;;;;;0.30;0.30;;;-1.90;99.90;;;-2.23;100.00;98732.72;4870726;29;20248;-79
2022/12/14 05:55:27;;;;;;;0.20;0.20;;;-1.90;99.90;;;-2.23;100.00;98738.78;4875718;29;20290;-79
2022/12/14 05:57:55;;;;;;;0.20;0.20;;;-1.80;99.90;;;-2.30;100.00;98714.41;4874938;29;20267;-79
2022/12/14 06:00:22;;;;;;;0.20;0.20;;;-2.00;99.90;;;-2.29;100.00;98720.47;4874245;29;20256;-79
2022/12/14 06:02:50;;;;;;;0.20;0.20;;;-2.00;99.90;;;-2.32;100.00;98717.78;4873296;29;20236;-79
2022/12/14 06:05:18;;;;;;;0.38;0.38;;;-2.00;99.90;;;-2.33;100.00;98724.66;4876278;29;20236;-79
2022/12/14 06:07:45;;;;;;;0.20;0.20;;;-1.70;99.90;;;-2.32;100.00;98726.44;4878666;29;20293;-79
2022/12/14 06:10:12;;;;;;;0.30;0.30;;;-2.00;99.90;;;-2.26;100.00;98726.63;4867554;29;20267;-80
2022/12/14 06:12:40;;;;;;;0.20;0.20;;;-2.00;99.90;;;-2.33;100.00;98711.72;4871075;29;20240;-79
2022/12/14 06:15:07;;;;;;;0.20;0.20;;;-1.00;99.90;;;-2.33;100.00;98708.25;4859980;29;20267;-79
2022/12/14 06:17:34;;;;;;;0.20;0.20;;;-2.00;99.90;;;-2.30;100.00;98703.19;4882255;29;20268;-78
2022/12/14 06:20:02;;;;;;;0.20;0.20;;;-1.20;99.90;;;-2.34;100.00;98702.19;4873157;29;20252;-82
2022/12/14 06:22:29;;;;;;;0.20;0.20;;;-2.00;99.90;;;-2.38;100.00;98692.59;4876335;29;20543;-79
2022/12/14 06:24:56;;;;;;;0.20;0.20;;;-1.00;99.90;;;-2.32;100.00;98699.66;4873929;29;20310;-79
2022/12/14 06:27:23;;;;;;;0.20;0.20;;;-2.00;99.90;;;-2.36;100.00;98690.03;4885736;29;20263;-79
2022/12/14 06:29:50;;;;;;;0.20;0.20;;;-2.00;99.90;;;-2.34;100.00;98678.91;4882504;29;20620;-79
2022/12/14 06:32:17;;;;;;;0.28;0.28;;;-1.30;99.90;;;-2.35;100.00;98659.03;4853921;29;20241;-79
2022/12/14 06:34:45;;;;;;;0.30;0.30;;;-2.00;99.90;;;-2.37;100.00;98668.47;4856021;29;20293;-79
2022/12/14 06:37:13;;;;;;;0.20;0.20;;;-2.00;99.90;;;-2.35;100.00;98673.69;4880677;29;20236;-80
2022/12/14 06:39:40;;;;;;;0.30;0.30;;;-1.90;99.90;;;-2.38;100.00;98671.00;4883538;29;20255;-79
2022/12/14 06:42:07;;;;;;;0.20;0.20;;;-2.00;99.90;;;-2.39;100.00;98675.28;4881726;29;20340;-79
2022/12/14 06:44:35;;;;;;;0.20;0.20;;;-2.10;99.90;;;-2.32;100.00;98685.00;4855780;29;20224;-79
2022/12/14 06:47:02;;;;;;;0.20;0.20;;;-1.20;99.90;;;-2.35;100.00;98676.28;4879179;29;20288;-79
2022/12/14 06:49:30;;;;;;;0.20;0.20;;;-1.60;99.90;;;-2.36;100.00;98679.69;4880864;29;20347;-79
2022/12/14 06:51:57;;;;;;;0.20;0.20;;;-2.00;99.90;;;-2.36;100.00;98677.09;4873567;29;20323;-79
2022/12/14 06:54:24;;;;;;;0.20;0.20;;;-2.10;99.90;;;-2.34;100.00;98667.69;4860417;29;20267;-79
2022/12/14 06:56:51;;;;;;;0.20;0.20;;;-2.00;99.90;;;-2.41;100.00;98673.50;4873081;29;20239;-79
2022/12/14 06:59:18;;;;;;;0.20;0.20;;;-1.70;99.90;;;-2.39;100.00;98682.19;4872770;29;20240;-79
2022/12/14 07:01:48;;;;;;;0.20;0.20;;;-1.20;99.90;;;-2.39;100.00;98680.47;4877290;29;20231;-78
2022/12/14 07:04:19;;;;;;;0.17;0.17;;;-2.10;99.90;;;-2.36;100.00;98674.50;4866876;29;20240;-78
2022/12/14 07:06:47;;;;;;;0.25;0.25;;;-2.00;99.90;;;-2.32;100.00;98678.97;4863534;29;20258;-79
2022/12/14 07:09:15;;;;;;;0.20;0.20;;;-1.20;99.90;;;-2.40;100.00;98662.31;4850600;29;20235;-80
2022/12/14 07:11:42;;;;;;;0.20;0.20;;;-2.00;99.90;;;-2.42;100.00;98670.03;4881384;29;20240;-79
2022/12/14 07:14:15;;;;;;;0.15;0.15;;;-2.10;99.90;;;-2.43;100.00;98675.16;4887124;29;20251;-80
2022/12/14 07:16:43;;;;;;;0.20;0.20;;;-1.90;99.90;;;-2.54;100.00;98663.56;4880128;29;20252;-80
2022/12/14 07:19:15;;;;;;;0.25;0.25;;;-2.20;99.90;;;-2.54;100.00;98653.22;4880955;29;20296;-80
2022/12/14 07:21:42;;;;;;;0.20;0.20;;;-1.40;99.90;;;-2.46;100.00;98657.81;4873393;29;20761;-81
2022/12/14 07:24:09;;;;;;;0.20;0.20;;;-2.20;99.90;;;-2.49;100.00;98654.25;4882316;29;20288;-82
2022/12/14 07:26:36;;;;;;;0.20;0.20;;;-2.10;99.90;;;-2.54;100.00;98648.94;4877158;29;20263;-80
2022/12/14 07:29:04;;;;;;;0.20;0.20;;;-0.90;99.90;;;-2.66;100.00;98638.16;4879043;29;20277;-80
2022/12/14 07:31:31;;;;;;;0.20;0.20;;;-1.50;99.90;;;-2.67;100.00;98637.28;4864288;29;20239;-81
2022/12/14 07:33:59;;;;;;;0.20;0.20;;;-2.30;99.90;;;-2.66;100.00;98630.38;4870674;29;20232;-81
2022/12/14 07:36:28;;;;;;;0.20;0.20;;;-2.30;99.90;;;-2.62;100.00;98643.47;4878768;29;20264;-80
2022/12/14 07:38:56;;;;;;;0.20;0.20;;;-1.20;99.90;;;-2.74;100.00;98627.56;4879600;29;20248;-82
2022/12/14 07:41:28;;;;;;;0.20;0.20;;;-2.40;99.90;;;-2.72;100.00;98633.66;4975316;23;20244;-79
2022/12/14 07:43:57;;;;;;;0.20;0.20;;;-1.20;99.90;;;-2.66;100.00;98645.91;4911955;29;20222;-82
2022/12/14 07:46:27;;;;;;;0.20;0.20;;;-1.20;99.90;;;-2.75;100.00;98651.66;4915057;29;20258;-77
2022/12/14 07:48:57;;;;;;;0.20;0.20;;;-2.40;99.90;;;-2.73;100.00;98646.53;4925351;29;20249;-78
2022/12/14 07:51:44;;;;;;;0.20;0.20;;;-1.70;99.90;;;-2.70;100.00;98637.19;4914802;29;20245;-77
2022/12/14 07:54:12;;;;;;;0.47;0.47;;;-1.10;99.90;;;-2.64;100.00;98646.84;4907590;29;20253;-78
2022/12/14 07:56:42;;;;;;;0.20;0.20;;;-2.30;99.90;;;-2.62;100.00;98640.88;4932355;29;20260;-75
2022/12/14 07:59:14;;;;;;;0.28;0.28;;;-1.30;99.90;;;-2.68;100.00;98626.88;4930490;29;20678;-77
2022/12/14 08:01:42;;;;;;;0.20;0.20;;;-2.30;99.90;;;-2.67;100.00;98605.34;4883773;29;20246;-78
2022/12/14 08:04:14;;;;;;;0.20;0.20;;;-2.40;99.90;;;-2.63;100.00;98620.13;4883209;29;20235;-82
2022/12/14 08:06:42;;;;;;;0.13;0.13;;;-2.30;99.90;;;-2.67;100.00;98633.81;4917567;29;20231;-78
2022/12/14 08:09:10;;;;;;;1.30;1.30;;;-2.30;99.90;;;-2.62;100.00;98642.59;4917390;29;20262;-76
2022/12/14 08:11:38;;;;;;;0.40;0.40;;;-2.30;99.90;;;-2.62;100.00;98637.41;4921376;29;20258;-75
2022/12/14 08:14:11;;;;;;;0.20;0.20;;;-2.30;99.90;;;-2.59;100.00;98640.13;4927389;29;20357;-74
2022/12/14 08:16:38;;;;;;;0.20;0.20;;;-2.30;99.90;;;-2.65;100.00;98650.25;4937017;29;20226;-74
2022/12/14 08:19:05;;;;;;;0.20;0.20;;;-2.30;99.90;;;-2.69;100.00;98644.09;4914539;29;20226;-74
2022/12/14 08:21:32;;;;;;;0.30;0.30;;;-2.40;99.90;;;-2.64;100.00;98655.47;4927089;29;20314;-74
2022/12/14 08:24:00;;;;;;;0.10;0.10;;;-2.30;99.90;;;-2.55;100.00;98664.41;4910892;29;20662;-73
2022/12/14 08:26:27;;;;;;;0.20;0.20;;;-2.30;99.90;;;-2.63;100.00;98659.81;4917680;29;20239;-74
2022/12/14 08:29:02;;;;;;;0.20;0.20;;;-2.30;99.90;;;-2.70;100.00;98644.94;4942916;29;20256;-74
2022/12/14 08:31:29;;;;;;;0.30;0.30;;;-1.80;99.90;;;-2.70;100.00;98650.09;4915336;29;20238;-74
2022/12/14 08:34:00;;;;;;;0.20;0.20;;;-2.20;99.90;;;-2.71;100.00;98650.94;4929952;29;20240;-74
2022/12/14 08:36:32;;;;;;;0.20;0.20;;;-2.40;99.90;;;-2.68;100.00;98650.16;4927382;29;20342;-76
2022/12/14 08:39:03;;;;;;;3.03;1.65;;;-2.40;99.90;;;-2.74;100.00;98653.44;4926153;29;20284;-76
2022/12/14 08:41:30;;;;;;;1.92;1.48;;;-2.40;99.90;;;-2.74;100.00;98662.91;4918079;29;20255;-78
2022/12/14 08:44:00;;;;;;;0.20;0.20;;;-1.80;99.90;;;-2.72;100.00;98656.06;4924390;29;20434;-77
2022/12/14 08:46:29;;;;;;;0.65;0.65;;;-2.40;99.90;;;-2.71;100.00;98658.69;4925372;29;20726;-78
2022/12/14 08:48:58;;;;;;;0.35;0.35;;;-2.40;99.90;;;-2.63;100.00;98672.75;4928219;29;20234;-77
2022/12/14 08:51:27;;;;;;;0.20;0.20;;;-1.90;99.90;;;-2.63;100.00;98664.13;4866519;23;20246;-63
2022/12/14 08:53:55;;;;;;;0.10;0.10;;;-2.30;99.90;;;-2.62;100.00;98671.06;4854989;29;20236;-62
2022/12/14 08:56:25;;;;;;;0.10;0.10;;;-2.40;99.90;;;-2.69;100.00;98662.22;4852209;29;20331;-62
2022/12/14 08:58:53;;;;;;;0.20;0.20;;;-2.40;99.90;;;-2.64;100.00;98667.53;4865428;29;20237;-62
2022/12/14 09:01:27;;;;;;;0.20;0.20;;;-2.30;99.90;;;-2.60;100.00;98683.25;4843870;29;20267;-63
2022/12/14 09:04:06;;;;;;;0.20;0.20;;;-2.30;99.90;;;-2.59;100.00;98692.78;4869264;29;20249;-63
2022/12/14 09:06:37;;;;;;;0.20;0.20;;;-2.30;99.90;;;-2.51;100.00;98689.56;4870273;29;20316;-63
2022/12/14 09:09:06;;;;;;;0.43;0.43;;;-2.30;99.90;;;-2.47;100.00;98697.47;4890976;29;20295;-63
2022/12/14 09:11:43;;;;;;;0.20;0.20;;;-2.20;99.90;;;-2.49;100.00;98693.06;4881483;29;20289;-63
2022/12/14 09:14:10;;;;;;;0.20;0.20;;;-2.20;99.90;;;-2.46;100.00;98699.22;4868198;29;20324;-64
2022/12/14 09:16:38;;;;;;;0.40;0.40;;;-2.20;99.90;;;-2.46;100.00;98699.22;4890241;29;20235;-63
2022/12/14 09:19:06;;;;;;;0.10;0.10;;;-2.10;99.90;;;-2.52;100.00;98699.03;4889505;29;20729;-63
2022/12/14 09:21:33;;;;;;;0.20;0.20;;;-2.20;99.90;;;-2.55;100.00;98698.91;4849772;29;20228;-63
2022/12/14 09:24:00;;;;;;;0.10;0.10;;;-2.00;99.90;;;-2.55;100.00;98688.56;4856712;29;20331;-64
2022/12/14 09:26:28;;;;;;;0.20;0.20;;;-2.20;99.90;;;-2.46;100.00;98694.03;4868624;29;20301;-63
2022/12/14 09:28:56;;;;;;;0.22;0.22;;;-2.10;99.90;;;-2.43;100.00;98693.25;4851132;29;20260;-64
2022/12/14 09:31:26;;;;;;;0.20;0.20;;;-2.20;99.90;;;-2.43;100.00;98690.69;4835845;29;20241;-63
2022/12/14 09:33:53;;;;;;;0.17;0.17;;;-2.10;99.90;;;-2.35;100.00;98697.84;4878574;29;20252;-63
2022/12/14 09:36:26;;;;;;;0.20;0.20;;;-2.10;99.90;;;-2.31;100.00;98691.06;4831410;29;20284;-64
2022/12/14 09:38:56;;;;;;;0.10;0.10;;;-2.00;99.90;;;-2.24;100.00;98693.03;4898662;29;20322;-63
2022/12/14 09:41:30;;;;;;;0.50;0.50;;;-2.00;99.90;;;-2.28;100.00;98686.88;4838591;29;20290;-63
2022/12/14 09:44:18;;;;;;;0.20;0.20;;;-2.00;99.90;;;-2.31;100.00;98685.88;4883666;29;20289;-64
2022/12/14 09:47:04;;;;;;;0.20;0.20;;;-1.90;99.90;;;-2.32;100.00;98681.53;4857863;29;20236;-65
2022/12/14 09:49:47;;;;;;;0.17;0.17;;;-2.00;99.90;;;-2.32;100.00;98684.13;4850033;29;20269;-63
2022/12/14 09:52:32;;;;;;;0.10;0.10;;;-1.90;99.90;;;-2.30;100.00;98688.53;4872566;29;20228;-64
2022/12/14 09:55:05;;;;;;;0.30;0.30;;;-2.00;99.90;;;-2.17;100.00;98689.78;4854386;29;20354;-64
2022/12/14 09:57:38;;;;;;;0.40;0.40;;;-1.90;99.90;;;-2.18;100.00;98687.16;4875373;29;20259;-63
2022/12/14 10:00:18;;;;;;;0.20;0.20;;;-1.80;99.90;;;-2.07;100.00;98690.94;4863628;29;20264;-63
2022/12/14 10:03:15;;;;;;;0.20;0.20;;;-1.80;99.90;;;-2.18;100.00;98677.69;4855820;29;20254;-63
2022/12/14 10:06:33;;;;;;;0.20;0.20;;;-1.80;99.90;;;-2.12;100.00;98688.22;4859359;29;20242;-64
2022/12/14 10:09:33;;;;;;;0.10;0.10;;;-1.80;99.90;;;-2.19;100.00;98680.22;4874590;29;20314;-63
2022/12/14 10:12:15;;;;;;;0.20;0.20;;;-1.80;99.90;;;-2.24;100.00;98672.31;4860871;29;20349;-63
2022/12/14 10:15:19;;;;;;;0.20;0.20;;;-1.90;99.90;;;-2.12;100.00;98676.97;4842551;29;20235;-64
2022/12/14 10:18:13;;;;;;;0.20;0.20;;;-1.90;99.90;;;-2.11;100.00;98673.56;4877077;29;20315;-63
2022/12/14 10:21:16;;;;;;;0.20;0.20;;;-1.80;99.90;;;-2.10;100.00;98677.91;4875971;29;20256;-63
2022/12/14 10:24:01;;;;;;;0.20;0.20;;;-1.80;99.90;;;-2.12;100.00;98683.03;4848415;29;20276;-63
2022/12/14 10:26:53;;;;;;;0.52;0.50;;;-1.80;99.90;;;-2.12;100.00;98684.75;4872254;29;20260;-63
2022/12/14 10:29:25;;;;;;;0.20;0.20;;;-1.90;99.90;;;-2.02;100.00;98686.78;4824839;29;20331;-64
2022/12/14 10:32:03;;;;;;;0.50;0.50;;;-1.80;99.90;;;-2.09;100.00;98683.13;4832380;29;20750;-64
2022/12/14 10:34:33;;;;;;;0.20;0.20;;;-1.80;99.90;;;-2.17;100.00;98674.25;4827608;29;21842;-64
2022/12/14 10:37:22;;;;;;;0.85;0.85;;;-1.90;99.90;;;-2.12;100.00;98671.81;4866027;29;20332;-64
2022/12/14 10:40:08;;;;;;;0.20;0.20;;;-1.80;99.90;;;-2.08;100.00;98681.44;4831679;29;20239;-64
2022/12/14 10:43:31;;;;;;;0.20;0.20;;;-1.80;99.90;;;-1.96;100.00;98692.16;4851777;29;20233;-64
2022/12/14 10:45:58;;;;;;;0.52;0.52;;;-1.70;99.90;;;-1.97;100.00;98688.69;4872261;29;20319;-63
2022/12/14 10:48:45;;;;;;;0.20;0.20;;;-1.70;99.90;;;-2.04;100.00;98681.56;4841628;29;20237;-64
2022/12/14 10:51:37;;;;;;;0.20;0.20;;;-1.70;99.90;;;-2.00;100.00;98687.72;4864903;29;20235;-64
2022/12/14 10:54:29;;;;;;;0.20;0.20;;;-1.70;99.90;;;-2.04;100.00;98688.47;4828873;29;20307;-63
2022/12/14 10:56:56;;;;;;;0.30;0.30;;;-1.80;99.90;;;-1.97;100.00;98700.75;4868345;29;20242;-64
2022/12/14 10:59:38;;;;;;;2.72;2.45;;;-1.70;99.90;;;-1.90;100.00;98700.13;4839133;29;20262;-64
2022/12/14 11:02:32;;;;;;;0.20;0.20;;;-1.60;99.90;;;-1.80;100.00;98706.44;4852993;29;20248;-63